createdAt,value
2018-04-24T00:00:10.133Z,75.8
2018-04-24T00:01:09.352Z,76.3
2018-04-24T00:02:08.300Z,76.5
2018-04-24T00:03:07.724Z,76.4
2018-04-24T00:04:06.929Z,76.3
2018-04-24T00:05:06.374Z,76.4
2018-04-24T00:06:05.083Z,77.1
2018-04-24T00:07:04.580Z,77.1
2018-04-24T00:08:03.908Z,77
2018-04-24T00:09:03.245Z,77.2
2018-04-24T00:10:02.460Z,77.7
2018-04-24T00:11:01.675Z,78.2
2018-04-24T00:12:00.904Z,78.1
2018-04-24T00:13:00.000Z,77.9
2018-04-24T00:13:59.326Z,78
2018-04-24T00:14:58.653Z,77.9
2018-04-24T00:15:57.461Z,77.6
2018-04-24T00:16:56.563Z,77.7
2018-04-24T00:17:55.891Z,77.8
2018-04-24T00:18:55.385Z,78
2018-04-24T00:19:54.697Z,78.1
2018-04-24T00:20:53.406Z,77.9
2018-04-24T00:21:53.124Z,77.7
2018-04-24T00:22:52.231Z,77.6
2018-04-24T00:24:50.433Z,77.1
2018-04-24T00:25:49.750Z,77.3
2018-04-24T00:26:49.143Z,77.2
2018-04-24T00:27:48.358Z,76.8
2018-04-24T00:28:47.572Z,76.9
2018-04-24T00:29:47.018Z,77.2
2018-04-24T00:30:46.122Z,77.5
2018-04-24T00:31:45.041Z,77.5
2018-04-24T00:32:44.256Z,77.8
2018-04-24T00:33:14.912Z,77.8
2018-04-24T00:33:45.435Z,77.6
2018-04-24T00:34:15.884Z,77.6
2018-04-24T00:34:46.372Z,77.9
2018-04-24T00:35:17.001Z,77.9
2018-04-24T00:36:41.386Z,77.9
2018-04-24T00:37:40.308Z,77.8
2018-04-24T00:38:39.810Z,78.5
2018-04-24T00:39:39.023Z,78.6
2018-04-24T00:40:38.361Z,78.7
2018-04-24T00:41:37.176Z,78.7
2018-04-24T00:42:36.602Z,78.7
2018-04-24T00:43:36.027Z,79
2018-04-24T00:44:06.566Z,79
2018-04-24T00:44:36.727Z,79.2
2018-04-24T00:45:07.216Z,79.2
2018-04-24T00:45:37.629Z,79.1
2018-04-24T00:46:08.271Z,79.1
2018-04-24T00:48:31.833Z,78.9
2018-04-24T00:49:31.154Z,79.3
2018-04-24T00:50:30.369Z,79.5
2018-04-24T00:51:29.590Z,79.3
2018-04-24T00:52:28.912Z,79.3
2018-04-24T00:53:27.690Z,80.7
2018-04-24T00:54:27.035Z,80.1
2018-04-24T00:55:26.643Z,80.1
2018-04-24T00:56:25.552Z,80.7
2018-04-24T00:57:24.753Z,80.9
2018-04-24T00:58:23.962Z,80.9
2018-04-24T00:59:23.281Z,80.8
2018-04-24T01:00:22.506Z,80.9
2018-04-24T01:01:21.819Z,81.1
2018-04-24T01:02:21.127Z,81.5
2018-04-24T01:03:19.836Z,81.7
2018-04-24T01:04:19.451Z,81.6
2018-04-24T01:05:18.768Z,81.5
2018-04-24T01:06:17.580Z,82.2
2018-04-24T01:07:16.900Z,81.9
2018-04-24T01:08:16.285Z,81.7
2018-04-24T01:09:15.712Z,81.7
2018-04-24T01:10:14.920Z,82.3
2018-04-24T01:11:14.130Z,82.8
2018-04-24T01:12:12.955Z,82.5
2018-04-24T01:13:12.158Z,82.5
2018-04-24T01:14:11.583Z,82.7
2018-04-24T01:14:41.702Z,82.7
2018-04-24T01:15:12.238Z,82.6
2018-04-24T01:15:42.543Z,82.6
2018-04-24T01:16:13.281Z,82.9
2018-04-24T01:17:09.211Z,83.2
2018-04-24T01:18:08.429Z,83
2018-04-24T01:19:07.710Z,82.9
2018-04-24T01:20:06.522Z,82.9
2018-04-24T01:21:05.971Z,83.3
2018-04-24T01:22:04.872Z,83.4
2018-04-24T01:23:04.593Z,83.4
2018-04-24T01:24:03.700Z,83.2
2018-04-24T01:25:02.802Z,83.1
2018-04-24T01:25:33.209Z,83.1
2018-04-24T01:26:03.844Z,83
2018-04-24T01:27:01.231Z,82.9
2018-04-24T01:28:00.450Z,82.9
2018-04-24T01:28:59.436Z,82.8
2018-04-24T01:29:58.648Z,82.6
2018-04-24T01:30:57.977Z,82.4
2018-04-24T01:31:57.291Z,82.2
2018-04-24T01:32:56.699Z,82.3
2018-04-24T01:33:55.900Z,82.1
2018-04-24T01:35:53.792Z,81.9
2018-04-24T01:36:53.129Z,81.8
2018-04-24T01:37:52.462Z,82
2018-04-24T01:38:51.907Z,82.1
2018-04-24T01:39:50.619Z,82.1
2018-04-24T01:49:32.300Z,82
2018-04-24T01:50:02.717Z,82.7
2018-04-24T01:50:42.299Z,81.8
2018-04-24T01:51:41.221Z,81.8
2018-04-24T01:52:40.551Z,81.9
2018-04-24T01:53:39.867Z,81.7
2018-04-24T01:54:39.073Z,81.5
2018-04-24T01:55:38.375Z,81.5
2018-04-24T01:56:37.290Z,81.9
2018-04-24T01:57:36.514Z,81.8
2018-04-24T01:58:35.832Z,81.9
2018-04-24T01:59:34.759Z,82.1
2018-04-24T02:00:34.263Z,82.4
2018-04-24T02:01:33.093Z,82.3
2018-04-24T02:02:32.418Z,82.4
2018-04-24T02:03:31.631Z,82.3
2018-04-24T02:04:30.958Z,82.4
2018-04-24T02:05:30.383Z,82.4
2018-04-24T02:06:29.198Z,82.4
2018-04-24T02:07:28.518Z,82.3
2018-04-24T02:08:27.506Z,82.3
2018-04-24T02:09:26.833Z,82.3
2018-04-24T02:09:57.360Z,82.3
2018-04-24T02:11:25.505Z,82.1
2018-04-24T02:11:55.917Z,82.1
2018-04-24T02:13:23.705Z,81.2
2018-04-24T02:14:23.030Z,81.1
2018-04-24T02:15:21.958Z,80.8
2018-04-24T02:16:21.183Z,80.9
2018-04-24T02:19:18.879Z,79.6
2018-04-24T02:19:49.399Z,79.6
2018-04-24T02:24:31.382Z,80
2018-04-24T02:24:33.205Z,80
2018-04-24T02:25:03.678Z,80
2018-04-24T02:26:13.413Z,79.9
2018-04-24T02:27:12.231Z,80
2018-04-24T02:28:11.849Z,80.1
2018-04-24T02:29:11.084Z,79.9
2018-04-24T02:30:10.004Z,79.9
2018-04-24T02:32:08.717Z,79.8
2018-04-24T02:33:07.529Z,80.2
2018-04-24T02:34:06.746Z,80
2018-04-24T02:35:06.064Z,80
2018-04-24T02:36:05.399Z,80
2018-04-24T02:37:04.611Z,79.9
2018-04-24T02:39:02.930Z,79.7
2018-04-24T02:40:02.026Z,79.8
2018-04-24T02:41:01.373Z,79.5
2018-04-24T02:42:00.095Z,79.5
2018-04-24T02:43:58.700Z,79.7
2018-04-24T02:44:57.908Z,79.7
2018-04-24T02:45:57.346Z,79.4
2018-04-24T02:46:56.469Z,79.8
2018-04-24T02:47:55.490Z,80
2018-04-24T02:48:54.596Z,80
2018-04-24T02:49:25.125Z,80
2018-04-24T02:49:55.849Z,79.9
2018-04-24T02:50:26.275Z,79.9
2018-04-24T02:50:56.690Z,80
2018-04-24T02:51:27.329Z,80
2018-04-24T02:51:58.011Z,80
2018-04-24T02:52:28.650Z,80
2018-04-24T02:53:50.509Z,80.4
2018-04-24T02:54:50.018Z,80.3
2018-04-24T02:55:49.119Z,80.7
2018-04-24T02:56:48.329Z,80.2
2018-04-24T02:57:47.650Z,80.5
2018-04-24T02:58:46.365Z,80.4
2018-04-24T02:59:45.871Z,80.5
2018-04-24T03:00:16.418Z,80.5
2018-04-24T03:00:46.657Z,80.8
2018-04-24T03:01:16.910Z,80.8
2018-04-24T03:01:47.568Z,80.9
2018-04-24T03:02:18.213Z,80.9
2018-04-24T03:02:48.857Z,80.8
2018-04-24T03:03:19.512Z,80.8
2018-04-24T03:04:41.889Z,81.3
2018-04-24T03:05:40.987Z,81.5
2018-04-24T03:06:40.192Z,81.4
2018-04-24T03:07:39.511Z,81.5
2018-04-24T03:08:38.745Z,81.7
2018-04-24T03:09:37.850Z,81.9
2018-04-24T03:10:37.186Z,81.8
2018-04-24T03:11:36.292Z,82
2018-04-24T03:12:35.200Z,82.2
2018-04-24T03:13:34.525Z,82.4
2018-04-24T03:14:33.853Z,82.3
2018-04-24T03:15:32.670Z,81.9
2018-04-24T03:16:32.091Z,82.3
2018-04-24T03:17:31.411Z,82.2
2018-04-24T03:18:30.116Z,82
2018-04-24T03:19:29.426Z,82.2
2018-04-24T03:20:28.743Z,82.3
2018-04-24T03:21:27.748Z,82.4
2018-04-24T03:22:27.088Z,82.5
2018-04-24T03:23:26.191Z,82.7
2018-04-24T03:24:25.521Z,82.7
2018-04-24T03:25:25.021Z,83
2018-04-24T03:26:23.832Z,82.9
2018-04-24T03:27:23.039Z,83
2018-04-24T03:28:22.353Z,83
2018-04-24T03:29:21.665Z,83
2018-04-24T03:30:20.580Z,83
2018-04-24T03:31:20.018Z,83.3
2018-04-24T03:32:19.229Z,83.4
2018-04-24T03:32:49.451Z,83.4
2018-04-24T03:33:20.098Z,83.2
2018-04-24T03:34:17.300Z,83.4
2018-04-24T03:35:16.404Z,83.5
2018-04-24T03:36:15.623Z,83.6
2018-04-24T03:38:13.941Z,83.5
2018-04-24T03:39:13.341Z,83.5
2018-04-24T03:40:12.545Z,83.6
2018-04-24T03:41:11.468Z,83.9
2018-04-24T03:42:10.685Z,84.1
2018-04-24T03:43:10.110Z,84.1
2018-04-24T03:44:09.320Z,84
2018-04-24T03:45:08.529Z,84.5
2018-04-24T03:46:07.740Z,84.6
2018-04-24T03:47:06.674Z,84.5
2018-04-24T03:49:05.274Z,84.5
2018-04-24T03:50:04.188Z,84.8
2018-04-24T03:51:03.184Z,85
2018-04-24T03:52:02.413Z,85
2018-04-24T03:53:01.845Z,85.2
2018-04-24T03:54:01.078Z,85.4
2018-04-24T03:55:00.176Z,85.8
2018-04-24T03:55:59.411Z,86
2018-04-24T03:56:58.626Z,86
2018-04-24T03:57:57.952Z,86.3
2018-04-24T03:58:56.763Z,86.3
2018-04-24T03:59:55.986Z,86.1
2018-04-24T04:00:55.085Z,86.2
2018-04-24T04:01:54.708Z,86.3
2018-04-24T04:02:53.528Z,86.3
2018-04-24T04:03:52.739Z,86.3
2018-04-24T04:04:52.157Z,86.2
2018-04-24T04:05:50.966Z,86.4
2018-04-24T04:06:50.284Z,86.3
2018-04-24T04:07:49.500Z,86.5
2018-04-24T04:08:48.491Z,86.5
2018-04-24T04:09:47.698Z,86.8
2018-04-24T04:10:47.025Z,86.8
2018-04-24T04:11:46.234Z,86.8
2018-04-24T04:12:45.202Z,87.1
2018-04-24T04:13:44.525Z,87.1
2018-04-24T04:14:43.847Z,87.3
2018-04-24T04:15:43.054Z,87.3
2018-04-24T04:16:42.279Z,87.3
2018-04-24T04:17:41.297Z,87.3
2018-04-24T04:18:40.222Z,87.7
2018-04-24T04:19:39.649Z,87.7
2018-04-24T04:20:38.972Z,87.6
2018-04-24T04:21:38.072Z,87.7
2018-04-24T04:22:37.066Z,87.7
2018-04-24T04:23:36.378Z,87.8
2018-04-24T04:24:35.484Z,87.8
2018-04-24T04:25:34.700Z,87.9
2018-04-24T04:26:33.616Z,87.9
2018-04-24T04:27:03.846Z,87.9
2018-04-24T04:27:34.269Z,88.1
2018-04-24T04:28:32.187Z,88
2018-04-24T04:29:31.611Z,88
2018-04-24T04:30:30.427Z,88.1
2018-04-24T04:31:29.750Z,87.8
2018-04-24T04:33:27.854Z,88.2
2018-04-24T04:34:27.288Z,88.2
2018-04-24T04:35:26.494Z,88.1
2018-04-24T04:36:25.421Z,87.9
2018-04-24T04:37:24.632Z,87.9
2018-04-24T04:38:23.842Z,87.8
2018-04-24T04:39:23.276Z,87.9
2018-04-24T04:40:22.096Z,88.1
2018-04-24T04:42:20.803Z,88.2
2018-04-24T04:43:20.007Z,88
2018-04-24T04:44:18.713Z,87.9
2018-04-24T04:45:18.146Z,88.1
2018-04-24T04:46:17.078Z,87.8
2018-04-24T04:47:16.192Z,87.7
2018-04-24T04:48:15.410Z,87.8
2018-04-24T04:49:15.041Z,87.8
2018-04-24T04:50:14.141Z,87.8
2018-04-24T04:51:13.069Z,87.8
2018-04-24T04:52:12.382Z,87.7
2018-04-24T04:53:11.696Z,87.7
2018-04-24T04:54:10.628Z,87.6
2018-04-24T04:55:09.736Z,87.7
2018-04-24T04:56:08.955Z,87.7
2018-04-24T04:57:08.390Z,87.7
2018-04-24T04:59:06.725Z,87.7
2018-04-24T05:00:05.547Z,87.7
2018-04-24T05:01:04.647Z,87.6
2018-04-24T05:02:03.858Z,87.5
2018-04-24T05:03:03.169Z,87.3
2018-04-24T05:04:02.382Z,87.4
2018-04-24T05:05:01.496Z,87.4
2018-04-24T05:06:00.718Z,87.6
2018-04-24T05:06:59.912Z,87.6
2018-04-24T05:07:59.231Z,87.5
2018-04-24T05:08:29.458Z,87.5
2018-04-24T05:09:00.101Z,87.4
2018-04-24T05:09:30.733Z,87.4
2018-04-24T05:10:01.142Z,87.7
2018-04-24T05:10:56.626Z,87.5
2018-04-24T05:11:55.653Z,87.1
2018-04-24T05:12:55.038Z,86.9
2018-04-24T05:13:54.258Z,86.3
2018-04-24T05:14:53.077Z,86.3
2018-04-24T05:15:52.515Z,86.5
2018-04-24T05:16:51.827Z,86.1
2018-04-24T05:17:50.542Z,86
2018-04-24T05:18:50.141Z,85.4
2018-04-24T05:19:20.769Z,85.4
2018-04-24T05:20:47.946Z,85.2
2018-04-24T05:22:46.436Z,85.5
2018-04-24T05:23:45.749Z,85.6
2018-04-24T05:24:44.955Z,85.7
2018-04-24T05:25:44.280Z,85.5
2018-04-24T05:26:42.988Z,85.6
2018-04-24T05:27:42.309Z,85.9
2018-04-24T05:28:41.923Z,85.5
2018-04-24T05:29:40.745Z,85.9
2018-04-24T05:30:39.735Z,85.7
2018-04-24T05:31:39.046Z,85.3
2018-04-24T05:32:38.254Z,84.8
2018-04-24T05:33:37.679Z,84.6
2018-04-24T05:34:36.994Z,84.1
2018-04-24T05:35:35.921Z,84.1
2018-04-24T05:36:35.240Z,84.2
2018-04-24T05:37:34.160Z,85.1
2018-04-24T05:38:33.585Z,85.1
2018-04-24T05:39:32.502Z,85
2018-04-24T05:40:31.723Z,84.8
2018-04-24T05:41:31.149Z,85.2
2018-04-24T05:42:30.075Z,85.1
2018-04-24T05:43:29.284Z,85.2
2018-04-24T05:44:28.604Z,85.1
2018-04-24T05:46:26.714Z,85
2018-04-24T05:47:26.034Z,85.1
2018-04-24T05:48:25.355Z,85.1
2018-04-24T05:49:24.272Z,85
2018-04-24T05:50:23.675Z,85
2018-04-24T05:51:22.883Z,85.3
2018-04-24T05:52:22.478Z,85.6
2018-04-24T05:53:21.322Z,86
2018-04-24T05:54:20.263Z,85.8
2018-04-24T05:55:19.472Z,85.3
2018-04-24T05:56:18.679Z,85.9
2018-04-24T05:56:49.314Z,85.9
2018-04-24T05:57:19.734Z,86.7
2018-04-24T05:58:17.429Z,85.1
2018-04-24T06:00:15.535Z,84.9
2018-04-24T06:01:14.745Z,85
2018-04-24T06:02:14.067Z,85
2018-04-24T06:03:12.882Z,84.9
2018-04-24T06:04:12.083Z,84.8
2018-04-24T06:05:11.422Z,84.6
2018-04-24T06:06:10.736Z,84.6
2018-04-24T06:08:08.929Z,84.5
2018-04-24T06:09:08.141Z,84.5
2018-04-24T06:10:07.651Z,84.7
2018-04-24T06:11:06.540Z,84.5
2018-04-24T06:12:05.863Z,84.8
2018-04-24T06:13:05.190Z,85
2018-04-24T06:14:04.106Z,84.6
2018-04-24T06:15:03.217Z,84.7
2018-04-24T06:17:01.889Z,84.3
2018-04-24T06:18:01.004Z,84.3
2018-04-24T06:19:00.210Z,84.5
2018-04-24T06:19:59.672Z,84.3
2018-04-24T06:20:58.597Z,84.3
2018-04-24T06:21:57.911Z,84.4
2018-04-24T06:22:57.023Z,84.3
2018-04-24T06:23:56.331Z,84.3
2018-04-24T06:24:55.653Z,83.8
2018-04-24T06:25:54.866Z,83.7
2018-04-24T06:26:54.088Z,83.4
2018-04-24T06:27:53.197Z,82.9
2018-04-24T06:28:52.309Z,82.4
2018-04-24T06:29:51.617Z,82.3
2018-04-24T06:30:50.830Z,82.5
2018-04-24T06:32:48.817Z,81.9
2018-04-24T06:33:48.528Z,81.6
2018-04-24T06:34:47.344Z,81.3
2018-04-24T06:35:46.557Z,81.8
2018-04-24T06:36:45.878Z,81.1
2018-04-24T06:37:16.393Z,81.1
2018-04-24T06:37:46.910Z,81
2018-04-24T06:38:17.302Z,81
2018-04-24T06:39:43.300Z,80.8
2018-04-24T06:40:42.721Z,81.4
2018-04-24T06:41:42.036Z,80.7
2018-04-24T06:42:41.233Z,80.7
2018-04-24T06:43:40.057Z,80.4
2018-04-24T06:44:39.477Z,80.4
2018-04-24T06:45:38.823Z,80.1
2018-04-24T06:46:38.026Z,80.1
2018-04-24T06:47:37.357Z,79.4
2018-04-24T06:48:36.181Z,79.5
2018-04-24T06:49:35.389Z,79.6
2018-04-24T06:50:34.995Z,79.1
2018-04-24T06:51:33.807Z,79
2018-04-24T06:52:33.417Z,78.8
2018-04-24T06:53:32.526Z,78.2
2018-04-24T06:54:31.744Z,77.9
2018-04-24T06:55:30.853Z,77.2
2018-04-24T06:56:30.182Z,74.9
2018-04-24T06:57:29.008Z,73.8
2018-04-24T06:58:28.247Z,73.7
2018-04-24T06:59:27.458Z,73.1
2018-04-24T07:00:26.566Z,73
2018-04-24T07:01:26.266Z,71.6
2018-04-24T07:02:25.467Z,70.7
2018-04-24T07:03:24.284Z,70.5
2018-04-24T07:04:23.900Z,71
2018-04-24T07:05:23.219Z,71.2
2018-04-24T07:07:21.319Z,69.8
2018-04-24T07:08:20.537Z,70.4
2018-04-24T07:09:19.754Z,70.1
2018-04-24T07:10:18.968Z,70.1
2018-04-24T07:12:17.685Z,70.7
2018-04-24T07:13:17.003Z,68.1
2018-04-24T07:14:16.225Z,67.9
2018-04-24T07:15:15.441Z,68
2018-04-24T07:16:14.643Z,68.5
2018-04-24T07:17:13.458Z,67.9
2018-04-24T07:18:12.659Z,67.9
2018-04-24T07:19:12.270Z,68.1
2018-04-24T07:20:11.598Z,68
2018-04-24T07:21:10.429Z,67.9
2018-04-24T07:22:09.760Z,67.8
2018-04-24T07:23:08.977Z,67.8
2018-04-24T07:25:07.769Z,67
2018-04-24T07:26:06.691Z,67.7
2018-04-24T07:27:05.979Z,68.6
2018-04-24T07:28:05.414Z,68.5
2018-04-24T07:29:04.414Z,67.9
2018-04-24T07:30:03.628Z,67.8
2018-04-24T07:31:02.727Z,68.2
2018-04-24T07:32:02.051Z,68
2018-04-24T07:34:00.333Z,68.8
2018-04-24T07:34:59.659Z,68.3
2018-04-24T07:35:59.376Z,68.8
2018-04-24T07:36:58.090Z,68.5
2018-04-24T07:37:57.420Z,69.3
2018-04-24T07:38:56.634Z,68.6
2018-04-24T07:39:56.266Z,67.9
2018-04-24T07:40:55.088Z,68.1
2018-04-24T07:41:54.698Z,68.8
2018-04-24T07:42:53.626Z,67.9
2018-04-24T07:43:52.946Z,68
2018-04-24T07:44:52.151Z,68.5
2018-04-24T07:45:51.580Z,68.2
2018-04-24T07:46:51.006Z,68.1
2018-04-24T07:47:50.062Z,68.1
2018-04-24T07:48:49.266Z,68
2018-04-24T07:49:48.586Z,68.4
2018-04-24T07:50:47.977Z,68.4
2018-04-24T07:51:47.193Z,67.5
2018-04-24T07:52:46.013Z,65.7
2018-04-24T07:53:45.705Z,65.5
2018-04-24T07:54:44.807Z,65.5
2018-04-24T07:55:44.011Z,64.4
2018-04-24T07:56:43.333Z,63.8
2018-04-24T07:57:42.430Z,63
2018-04-24T07:58:41.663Z,62.5
2018-04-24T07:59:40.988Z,61
2018-04-24T08:00:40.205Z,62.1
2018-04-24T08:01:39.516Z,61.5
2018-04-24T08:02:38.942Z,62.1
2018-04-24T08:03:38.152Z,61.2
2018-04-24T08:04:37.589Z,60.2
2018-04-24T08:05:36.299Z,60.7
2018-04-24T08:06:36.015Z,60.7
2018-04-24T08:07:35.222Z,61
2018-04-24T08:08:34.443Z,62
2018-04-24T08:09:33.650Z,60.1
2018-04-24T08:10:32.964Z,59.8
2018-04-24T08:11:32.286Z,59.9
2018-04-24T08:12:31.495Z,60.8
2018-04-24T08:13:02.118Z,60.8
2018-04-24T08:13:32.561Z,60.1
2018-04-24T08:14:03.208Z,60.1
2018-04-24T08:14:33.740Z,59.2
2018-04-24T08:15:04.389Z,59.2
2018-04-24T08:15:34.911Z,59.3
2018-04-24T08:16:05.665Z,59.3
2018-04-24T08:17:27.919Z,59.3
2018-04-24T08:18:27.232Z,59.7
2018-04-24T08:19:26.162Z,59.5
2018-04-24T08:21:24.772Z,60.2
2018-04-24T08:22:23.874Z,60.4
2018-04-24T08:23:23.183Z,60.4
2018-04-24T08:24:22.409Z,59.8
2018-04-24T08:25:21.730Z,60.5
2018-04-24T08:26:21.045Z,59.8
2018-04-24T08:26:51.677Z,59.8
2018-04-24T08:28:19.578Z,61
2018-04-24T08:29:19.004Z,59
2018-04-24T08:30:18.433Z,58.7
2018-04-24T08:31:17.434Z,58.8
2018-04-24T08:32:16.763Z,59.3
2018-04-24T08:33:16.081Z,59
2018-04-24T08:34:15.397Z,58.5
2018-04-24T08:35:14.605Z,58.5
2018-04-24T08:36:13.760Z,59
2018-04-24T08:37:13.185Z,58
2018-04-24T08:38:12.291Z,58.2
2018-04-24T08:39:11.898Z,58.4
2018-04-24T08:40:11.252Z,57.4
2018-04-24T08:41:10.181Z,56.8
2018-04-24T08:42:09.394Z,56.2
2018-04-24T08:43:08.600Z,56.5
2018-04-24T08:44:08.310Z,56.1
2018-04-24T08:45:07.632Z,56.3
2018-04-24T08:46:06.335Z,57
2018-04-24T08:47:05.954Z,57.1
2018-04-24T08:48:05.163Z,57.5
2018-04-24T08:49:04.503Z,57.6
2018-04-24T08:50:03.945Z,57.9
2018-04-24T08:51:03.158Z,57.1
2018-04-24T08:52:02.277Z,57.7
2018-04-24T08:53:01.390Z,57.8
2018-04-24T08:54:00.891Z,57.1
2018-04-24T08:55:00.000Z,57.2
2018-04-24T08:55:59.328Z,56.6
2018-04-24T08:56:29.969Z,56.6
2018-04-24T08:57:57.870Z,56.7
2018-04-24T08:59:56.674Z,56.9
2018-04-24T09:00:56.000Z,56.7
2018-04-24T09:01:55.388Z,57.6
2018-04-24T09:02:54.263Z,57.2
2018-04-24T09:03:53.699Z,56.7
2018-04-24T09:04:53.138Z,56.6
2018-04-24T09:05:52.357Z,57.7
2018-04-24T09:06:51.449Z,57
2018-04-24T09:07:50.765Z,58.5
2018-04-24T09:08:49.974Z,56.2
2018-04-24T09:09:49.284Z,56.2
2018-04-24T09:10:48.998Z,57.9
2018-04-24T09:11:48.089Z,57.3
2018-04-24T09:12:47.288Z,57
2018-04-24T09:13:46.716Z,56.5
2018-04-24T09:14:45.923Z,58.2
2018-04-24T09:15:45.241Z,57.2
2018-04-24T09:17:43.849Z,55.1
2018-04-24T09:18:42.850Z,55
2018-04-24T09:19:42.056Z,55.5
2018-04-24T09:20:41.470Z,55.5
2018-04-24T09:21:41.182Z,55
2018-04-24T09:22:40.277Z,52.1
2018-04-24T09:23:39.371Z,52.5
2018-04-24T09:24:38.584Z,52.4
2018-04-24T09:25:38.369Z,52.7
2018-04-24T09:26:37.479Z,52.9
2018-04-24T09:27:36.687Z,53.5
2018-04-24T09:28:36.005Z,51.9
2018-04-24T09:29:35.337Z,52.5
2018-04-24T09:30:34.441Z,52.7
2018-04-24T09:31:34.151Z,52.7
2018-04-24T09:32:33.359Z,53.1
2018-04-24T09:33:32.929Z,53.7
2018-04-24T09:34:31.645Z,52.4
2018-04-24T09:35:30.983Z,51.3
2018-04-24T09:36:30.411Z,51.9
2018-04-24T09:37:29.724Z,52.4
2018-04-24T09:38:28.937Z,52.7
2018-04-24T09:39:28.155Z,51.9
2018-04-24T09:40:27.382Z,52.9
2018-04-24T09:41:27.105Z,50.9
2018-04-24T09:42:26.428Z,50.6
2018-04-24T09:43:25.241Z,50.7
2018-04-24T09:44:24.567Z,51.5
2018-04-24T09:45:24.321Z,51.2
2018-04-24T09:46:23.538Z,52.1
2018-04-24T09:47:22.763Z,51.7
2018-04-24T09:48:21.969Z,50.3
2018-04-24T09:49:21.284Z,51.2
2018-04-24T09:50:20.351Z,52
2018-04-24T09:51:19.777Z,52.6
2018-04-24T09:51:50.220Z,52.6
2018-04-24T09:52:20.854Z,52.1
2018-04-24T09:52:51.375Z,52.1
2018-04-24T09:53:21.617Z,51.6
2018-04-24T09:54:17.859Z,52.4
2018-04-24T09:55:17.293Z,52.3
2018-04-24T09:56:16.399Z,51.5
2018-04-24T09:57:15.608Z,51.6
2018-04-24T09:58:14.999Z,51.5
2018-04-24T09:59:14.217Z,51.3
2018-04-24T10:00:13.859Z,51.3
2018-04-24T10:01:12.679Z,50.5
2018-04-24T10:02:12.196Z,51
2018-04-24T10:03:11.680Z,50.8
2018-04-24T10:04:10.992Z,50.2
2018-04-24T10:05:10.312Z,50.1
2018-04-24T10:06:09.523Z,49.9
2018-04-24T10:07:08.945Z,48.4
2018-04-24T10:08:07.874Z,46.7
2018-04-24T10:09:07.301Z,47.8
2018-04-24T10:10:06.519Z,47.5
2018-04-24T10:11:05.742Z,46
2018-04-24T10:12:05.190Z,47.1
2018-04-24T10:13:04.631Z,49.1
2018-04-24T10:14:04.099Z,47.5
2018-04-24T10:15:02.914Z,47.5
2018-04-24T10:16:02.642Z,46.6
2018-04-24T10:17:01.644Z,47.1
2018-04-24T10:18:01.229Z,47.8
2018-04-24T10:19:00.342Z,47.6
2018-04-24T10:19:59.552Z,45.5
2018-04-24T10:20:58.992Z,45.2
2018-04-24T10:21:58.307Z,45.3
2018-04-24T10:22:57.618Z,45.8
2018-04-24T10:23:57.032Z,44.9
2018-04-24T10:24:56.352Z,44.1
2018-04-24T10:25:55.670Z,42.8
2018-04-24T10:26:54.773Z,43.4
2018-04-24T10:27:54.089Z,42.8
2018-04-24T10:28:53.800Z,42.5
2018-04-24T10:29:53.027Z,42.2
2018-04-24T10:30:52.127Z,42.9
2018-04-24T10:31:51.844Z,42.2
2018-04-24T10:32:50.956Z,42.6
2018-04-24T10:33:50.377Z,42.1
2018-04-24T10:34:49.594Z,42.7
2018-04-24T10:35:48.921Z,42.9
2018-04-24T10:36:48.137Z,43
2018-04-24T10:37:47.346Z,41.8
2018-04-24T10:39:46.052Z,42.8
2018-04-24T10:40:45.658Z,42.7
2018-04-24T10:41:44.979Z,43.1
2018-04-24T10:42:44.190Z,41.6
2018-04-24T10:43:43.607Z,42
2018-04-24T10:44:42.599Z,43.5
2018-04-24T10:45:42.313Z,42.6
2018-04-24T10:46:41.521Z,41.6
2018-04-24T10:47:40.621Z,42.3
2018-04-24T10:48:40.055Z,41.9
2018-04-24T10:49:39.418Z,40.9
2018-04-24T10:50:38.742Z,41.6
2018-04-24T10:51:38.004Z,41.8
2018-04-24T10:52:37.518Z,42.1
2018-04-24T10:53:36.954Z,41.2
2018-04-24T10:54:36.176Z,41.1
2018-04-24T10:55:35.279Z,41.6
2018-04-24T10:56:34.490Z,42
2018-04-24T10:57:34.210Z,42.4
2018-04-24T10:58:33.309Z,44.2
2018-04-24T10:59:32.798Z,43.4
2018-04-24T11:00:32.298Z,44.2
2018-04-24T11:01:31.160Z,44
2018-04-24T11:02:30.613Z,44.5
2018-04-24T11:03:30.033Z,43.5
2018-04-24T11:04:29.240Z,42.7
2018-04-24T11:05:28.663Z,44.4
2018-04-24T11:08:26.753Z,44.5
2018-04-24T11:09:25.858Z,43.9
2018-04-24T11:10:25.452Z,45.8
2018-04-24T11:11:24.888Z,44
2018-04-24T11:12:24.161Z,45.3
2018-04-24T11:13:23.480Z,44.6
2018-04-24T11:14:22.794Z,45.3
2018-04-24T11:15:22.065Z,44.3
2018-04-24T11:16:21.385Z,44.3
2018-04-24T11:17:20.813Z,45.1
2018-04-24T11:18:20.128Z,44.1
2018-04-24T11:19:19.340Z,43.4
2018-04-24T11:20:18.768Z,43.6
2018-04-24T11:21:18.159Z,43.9
2018-04-24T11:22:17.356Z,42.8
2018-04-24T11:23:16.681Z,42.7
2018-04-24T11:24:16.000Z,43.4
2018-04-24T11:25:15.219Z,43.1
2018-04-24T11:26:14.804Z,43.7
2018-04-24T11:27:14.116Z,43.5
2018-04-24T11:28:13.539Z,44.7
2018-04-24T11:29:12.666Z,45
2018-04-24T11:30:12.308Z,45.4
2018-04-24T11:32:10.676Z,43.4
2018-04-24T11:33:10.283Z,44.5
2018-04-24T11:34:09.640Z,43.6
2018-04-24T11:35:08.889Z,43.7
2018-04-24T11:36:08.218Z,42.6
2018-04-24T11:37:07.537Z,42.7
2018-04-24T11:38:06.857Z,43.4
2018-04-24T11:39:06.170Z,43.9
2018-04-24T11:40:05.376Z,43.8
2018-04-24T11:41:04.872Z,43.7
2018-04-24T11:42:03.975Z,43.4
2018-04-24T11:43:03.196Z,42.4
2018-04-24T11:44:03.002Z,42.3
2018-04-24T11:45:01.861Z,42.3
2018-04-24T11:46:01.381Z,42.6
2018-04-24T11:47:00.819Z,42.5
2018-04-24T11:48:00.143Z,42
2018-04-24T11:48:59.352Z,42.4
2018-04-24T11:49:58.924Z,42.9
2018-04-24T11:50:57.916Z,44.2
2018-04-24T11:51:57.626Z,42.5
2018-04-24T11:53:55.875Z,43.1
2018-04-24T11:54:55.250Z,43.8
2018-04-24T11:55:54.455Z,43.4
2018-04-24T11:56:53.881Z,43.5
2018-04-24T11:57:53.311Z,44.1
2018-04-24T11:58:52.521Z,44.8
2018-04-24T12:00:51.224Z,43.9
2018-04-24T12:01:50.841Z,44.2
2018-04-24T12:02:50.344Z,44.4
2018-04-24T12:05:47.941Z,44.7
2018-04-24T12:06:47.168Z,44.5
2018-04-24T12:07:46.491Z,45.6
2018-04-24T12:08:45.710Z,44.7
2018-04-24T12:09:45.130Z,45.6
2018-04-24T12:10:44.734Z,47.1
2018-04-24T12:11:44.162Z,46.3
2018-04-24T12:12:43.084Z,45.8
2018-04-24T12:13:42.703Z,45.9
2018-04-24T12:14:41.698Z,45.9
2018-04-24T12:15:41.328Z,45.6
2018-04-24T12:16:40.561Z,46.7
2018-04-24T12:17:39.983Z,46.2
2018-04-24T12:18:39.197Z,47.1
2018-04-24T12:19:38.513Z,46.6
2018-04-24T12:20:37.830Z,47.1
2018-04-24T12:21:37.104Z,47.6
2018-04-24T12:22:36.317Z,47.9
2018-04-24T12:23:35.645Z,48.5
2018-04-24T12:24:35.067Z,48
2018-04-24T12:26:33.774Z,48.3
2018-04-24T12:27:04.080Z,48.3
2018-04-24T12:28:32.584Z,48.3
2018-04-24T12:29:31.901Z,49.5
2018-04-24T12:30:31.183Z,49.5
2018-04-24T12:31:30.481Z,50.4
2018-04-24T12:32:29.812Z,49.8
2018-04-24T12:33:29.129Z,49.9
2018-04-24T12:34:28.344Z,50.5
2018-04-24T12:35:27.347Z,52.2
2018-04-24T12:37:26.451Z,50.2
2018-04-24T12:39:25.166Z,51.1
2018-04-24T12:40:24.282Z,50.9
2018-04-24T12:41:23.708Z,51.1
2018-04-24T12:43:22.199Z,52.1
2018-04-24T12:44:21.410Z,50.7
2018-04-24T12:45:20.841Z,51.3
2018-04-24T12:46:20.271Z,52.1
2018-04-24T12:47:19.599Z,51.9
2018-04-24T12:48:18.920Z,53
2018-04-24T12:49:17.928Z,51.7
2018-04-24T12:50:17.352Z,54
2018-04-24T12:51:16.779Z,53.4
2018-04-24T12:52:16.105Z,53.8
2018-04-24T12:53:15.533Z,54.8
2018-04-24T12:54:14.961Z,56.9
2018-04-24T12:55:13.675Z,54.9
2018-04-24T12:56:13.460Z,54.1
2018-04-24T12:57:12.577Z,53.2
2018-04-24T12:58:11.908Z,53.4
2018-04-24T12:59:11.524Z,53.8
2018-04-24T13:00:10.817Z,53.5
2018-04-24T13:01:10.097Z,54
2018-04-24T13:02:09.022Z,53.4
2018-04-24T13:03:08.744Z,53
2018-04-24T13:04:08.059Z,53
2018-04-24T13:05:07.262Z,52.3
2018-04-24T13:06:06.374Z,53.1
2018-04-24T13:07:05.604Z,53
2018-04-24T13:08:04.925Z,53
2018-04-24T13:09:04.309Z,53.5
2018-04-24T13:10:03.520Z,52.9
2018-04-24T13:11:02.834Z,52.7
2018-04-24T13:12:02.170Z,52.1
2018-04-24T13:13:01.505Z,52.5
2018-04-24T13:14:01.219Z,53.3
2018-04-24T13:15:00.225Z,53.1
2018-04-24T13:15:59.550Z,53.5
2018-04-24T13:16:58.873Z,54.2
2018-04-24T13:17:58.184Z,53.5
2018-04-24T13:18:57.492Z,55.6
2018-04-24T13:19:56.817Z,54.5
2018-04-24T13:20:56.131Z,55.3
2018-04-24T13:21:55.455Z,54.9
2018-04-24T13:22:25.979Z,54.9
2018-04-24T13:22:56.607Z,55.2
2018-04-24T13:23:54.014Z,54.3
2018-04-24T13:24:53.223Z,56.3
2018-04-24T13:25:52.797Z,55.6
2018-04-24T13:26:51.793Z,57.1
2018-04-24T13:27:51.005Z,57.6
2018-04-24T13:28:50.625Z,59.4
2018-04-24T13:29:50.048Z,58
2018-04-24T13:30:49.267Z,60.2
2018-04-24T13:31:48.513Z,60
2018-04-24T13:32:47.830Z,61.7
2018-04-24T13:34:46.536Z,60.3
2018-04-24T13:35:45.749Z,59.1
2018-04-24T13:36:45.077Z,60.7
2018-04-24T13:37:44.181Z,61.5